Time;durP1;ratioP1;P1;durP2;ratioP2;P2;SDS_P1;SDS_P2;PMS_P1;PMS_P2;Temp;Humidity;BMP_temperature;BMP_pressure;BME280_temperature;BME280_humidity;BME280_pressure;Samples;Min_cycle;Max_cycle;Signal;HPM_P1;HPM_P2
2024/01/23 00:00:18;;;;;;;;;;;;;;;6.37;73.55;101001.53;5005087;28;19933;-82
2024/01/23 00:02:45;;;;;;;;;;;;;;;6.28;74.17;101013.56;4992727;28;20024;-85
2024/01/23 00:05:12;;;;;;;;;;;;;;;6.22;74.45;101006.56;4999321;28;19930;-84
2024/01/23 00:07:38;;;;;;;;;;;;;;;6.39;73.17;100996.34;5009468;28;19944;-84
2024/01/23 00:10:05;;;;;;;;;;;;;;;6.48;72.69;101003.38;4997411;28;19973;-83
2024/01/23 00:12:32;;;;;;;;;;;;;;;6.35;73.07;101007.56;5004033;28;19933;-84
2024/01/23 00:14:59;;;;;;;;;;;;;;;6.17;73.88;101003.91;5010295;28;19951;-85
2024/01/23 00:17:26;;;;;;;;;;;;;;;6.25;73.21;100989.22;5011057;28;19926;-84
2024/01/23 00:19:52;;;;;;;;;;;;;;;6.58;71.63;101010.44;5008033;28;19929;-82
2024/01/23 00:22:19;;;;;;;;;;;;;;;6.64;71.04;101004.41;4998238;28;19926;-83
2024/01/23 00:24:46;;;;;;;;;;;;;;;6.20;72.91;100996.13;5007533;28;19932;-83
2024/01/23 00:27:13;;;;;;;;;;;;;;;6.37;71.83;101000.63;5014128;28;19948;-82
2024/01/23 00:29:39;;;;;;;;;;;;;;;6.39;71.62;101009.38;5012547;28;19926;-84
2024/01/23 00:32:06;;;;;;;;;;;;;;;6.31;71.25;101024.03;5006837;28;19925;-83
2024/01/23 00:34:33;;;;;;;;;;;;;;;6.48;69.86;101009.47;5006548;28;19936;-83
2024/01/23 00:37:01;;;;;;;;;;;;;;;6.56;69.31;101013.03;5005846;28;20016;-81
2024/01/23 00:39:27;;;;;;;;;;;;;;;6.44;69.99;101024.22;4990667;28;19933;-82
2024/01/23 00:41:54;;;;;;;;;;;;;;;6.35;70.92;101018.00;5002290;28;19932;-82
2024/01/23 00:44:21;;;;;;;;;;;;;;;6.26;71.54;101022.25;5004936;28;19925;-86
2024/01/23 00:46:48;;;;;;;;;;;;;;;6.28;71.85;101018.78;4987931;28;19930;-83
2024/01/23 00:49:14;;;;;;;;;;;;;;;6.38;71.32;101041.50;5002055;28;19948;-82
2024/01/23 00:51:41;;;;;;;;;;;;;;;6.49;70.93;101042.50;5009754;28;19972;-82
2024/01/23 00:54:07;;;;;;;;;;;;;;;6.50;70.71;101044.22;5010472;28;19925;-84
2024/01/23 00:56:35;;;;;;;;;;;;;;;6.49;71.00;101052.94;5010137;28;19961;-82
2024/01/23 00:59:02;;;;;;;;;;;;;;;6.53;70.97;101041.69;5008188;28;19930;-83
2024/01/23 01:01:28;;;;;;;;;;;;;;;6.44;71.06;101058.09;5004781;28;19926;-82
2024/01/23 01:03:55;;;;;;;;;;;;;;;6.30;71.75;101063.97;5012134;28;19925;-82
2024/01/23 01:06:22;;;;;;;;;;;;;;;6.47;70.97;101066.81;5001402;28;19925;-83
2024/01/23 01:08:49;;;;;;;;;;;;;;;6.45;71.12;101053.75;5007388;28;19925;-82
2024/01/23 01:11:15;;;;;;;;;;;;;;;6.33;71.58;101044.06;5007402;28;19929;-85
2024/01/23 01:13:42;;;;;;;;;;;;;;;6.46;71.02;101062.44;5009680;28;19929;-84
2024/01/23 01:16:09;;;;;;;;;;;;;;;6.50;70.94;101067.69;4990680;28;19985;-83
2024/01/23 01:18:36;;;;;;;;;;;;;;;6.30;71.72;101066.59;5008194;28;19935;-83
2024/01/23 01:21:03;;;;;;;;;;;;;;;6.37;71.34;101058.00;4997382;28;19932;-83
2024/01/23 01:23:30;;;;;;;;;;;;;;;6.33;71.45;101066.63;5010580;28;19926;-80
2024/01/23 01:25:57;;;;;;;;;;;;;;;6.21;71.79;101062.13;5010043;28;19932;-80
2024/01/23 01:28:23;;;;;;;;;;;;;;;6.37;70.81;101065.81;5007964;28;19931;-80
2024/01/23 01:30:50;;;;;;;;;;;;;;;6.30;71.37;101077.00;5007838;28;19937;-80
2024/01/23 01:33:18;;;;;;;;;;;;;;;6.46;70.28;101078.97;5006394;28;19956;-80
2024/01/23 01:35:45;;;;;;;;;;;;;;;6.34;71.22;101084.88;5006505;28;19936;-80
2024/01/23 01:38:11;;;;;;;;;;;;;;;6.29;71.50;101080.50;5007745;28;19948;-80
2024/01/23 01:40:38;;;;;;;;;;;;;;;6.22;72.24;101085.63;5003969;28;19933;-80
2024/01/23 01:43:04;;;;;;;;;;;;;;;6.30;71.93;101090.94;4987025;28;19925;-80
2024/01/23 01:45:31;;;;;;;;;;;;;;;6.26;72.33;101097.84;4990560;28;19929;-80
2024/01/23 01:47:57;;;;;;;;;;;;;;;6.04;73.28;101095.78;5006351;28;19992;-80
2024/01/23 01:50:24;;;;;;;;;;;;;;;6.15;72.87;101098.56;5004187;28;19926;-79
2024/01/23 01:52:51;;;;;;;;;;;;;;;6.13;73.08;101101.13;4989795;28;20340;-79
2024/01/23 01:55:17;;;;;;;;;;;;;;;6.15;72.74;101106.38;5008946;28;19933;-80
2024/01/23 01:57:44;;;;;;;;;;;;;;;6.27;72.37;101111.72;4982255;28;19933;-80
2024/01/23 02:00:11;;;;;;;;;;;;;;;6.42;71.94;101092.81;4991154;28;19933;-80
2024/01/23 02:02:41;;;;;;;;;;;;;;;6.26;72.49;101107.41;5004588;28;20440;-79
2024/01/23 02:05:08;;;;;;;;;;;;;;;6.15;72.83;101109.84;5002682;28;19926;-79
2024/01/23 02:07:34;;;;;;;;;;;;;;;6.18;72.66;101117.69;5001602;28;19929;-79
2024/01/23 02:10:01;;;;;;;;;;;;;;;6.02;73.44;101118.34;5007259;28;19933;-77
2024/01/23 02:12:27;;;;;;;;;;;;;;;6.17;72.74;101129.00;5009229;28;19926;-80
2024/01/23 02:14:54;;;;;;;;;;;;;;;6.30;72.25;101123.94;4997978;28;19965;-80
2024/01/23 02:17:21;;;;;;;;;;;;;;;6.32;72.34;101114.44;4985710;28;19925;-80
2024/01/23 02:19:50;;;;;;;;;;;;;;;6.37;72.48;101110.13;4991445;28;19926;-80
2024/01/23 02:22:17;;;;;;;;;;;;;;;6.31;73.42;101099.63;5007111;28;19932;-80
2024/01/23 02:24:44;;;;;;;;;;;;;;;6.24;75.22;101128.22;5004569;28;19941;-77
2024/01/23 02:27:10;;;;;;;;;;;;;;;5.95;77.56;101122.53;5004962;28;19926;-79
2024/01/23 02:29:37;;;;;;;;;;;;;;;5.84;78.85;101129.34;4995363;28;19980;-80
2024/01/23 02:32:04;;;;;;;;;;;;;;;5.81;78.76;101118.84;4985905;28;19953;-80
2024/01/23 02:34:30;;;;;;;;;;;;;;;5.74;79.32;101128.31;4983906;28;19925;-80
2024/01/23 02:36:57;;;;;;;;;;;;;;;5.70;79.41;101134.34;4995561;28;19926;-78
2024/01/23 02:39:25;;;;;;;;;;;;;;;5.72;79.89;101145.63;4991205;28;19925;-79
2024/01/23 02:41:52;;;;;;;;;;;;;;;5.76;79.84;101131.81;4993747;28;19941;-79
2024/01/23 02:44:19;;;;;;;;;;;;;;;5.53;81.50;101140.16;4990517;28;20035;-80
2024/01/23 02:46:46;;;;;;;;;;;;;;;5.51;81.21;101126.22;4995471;28;19995;-80
2024/01/23 02:49:12;;;;;;;;;;;;;;;5.47;81.57;101127.00;4995588;28;19941;-79
2024/01/23 02:51:39;;;;;;;;;;;;;;;5.37;82.26;101136.41;4994685;28;19988;-79
2024/01/23 02:54:06;;;;;;;;;;;;;;;5.34;82.52;101132.84;4991991;28;19934;-78
2024/01/23 02:56:32;;;;;;;;;;;;;;;5.36;82.10;101131.19;5015975;28;19934;-79
2024/01/23 02:58:59;;;;;;;;;;;;;;;5.50;81.11;101147.88;5003611;28;20324;-77
2024/01/23 03:01:26;;;;;;;;;;;;;;;5.86;78.22;101144.13;4977700;28;19996;-79
2024/01/23 03:03:52;;;;;;;;;;;;;;;5.70;79.17;101131.72;4994197;28;19925;-78
2024/01/23 03:06:19;;;;;;;;;;;;;;;5.56;79.87;101145.41;5005070;28;19988;-79
2024/01/23 03:08:46;;;;;;;;;;;;;;;5.84;77.94;101147.59;5006029;28;20023;-80
2024/01/23 03:11:12;;;;;;;;;;;;;;;5.73;78.21;101163.03;5004127;28;19925;-80
2024/01/23 03:13:39;;;;;;;;;;;;;;;5.56;78.57;101166.25;5002206;28;19926;-79
2024/01/23 03:16:06;;;;;;;;;;;;;;;5.62;78.42;101154.16;5005726;28;19930;-80
2024/01/23 03:18:32;;;;;;;;;;;;;;;5.81;77.37;101164.03;4993836;28;19941;-80
2024/01/23 03:20:59;;;;;;;;;;;;;;;5.71;77.93;101165.59;4994625;28;19965;-79
2024/01/23 03:23:26;;;;;;;;;;;;;;;5.73;77.76;101160.41;4990536;28;19945;-79
2024/01/23 03:25:52;;;;;;;;;;;;;;;5.82;76.93;101170.13;5000232;28;19940;-80
2024/01/23 03:28:19;;;;;;;;;;;;;;;5.61;77.92;101158.50;4992009;28;19998;-80
2024/01/23 03:30:46;;;;;;;;;;;;;;;5.70;77.43;101168.19;4976734;28;19968;-80
2024/01/23 03:33:13;;;;;;;;;;;;;;;5.58;77.78;101155.84;4989439;28;20354;-80
2024/01/23 03:35:40;;;;;;;;;;;;;;;5.70;77.33;101166.44;4995199;28;19925;-79
2024/01/23 03:38:06;;;;;;;;;;;;;;;5.61;77.40;101183.66;5008329;28;19975;-80
2024/01/23 03:40:33;;;;;;;;;;;;;;;5.64;77.22;101175.91;5010427;28;19941;-79
2024/01/23 03:42:59;;;;;;;;;;;;;;;5.73;76.77;101179.50;5011529;28;19925;-79
2024/01/23 03:45:26;;;;;;;;;;;;;;;5.57;77.98;101149.75;4992446;28;19936;-79
2024/01/23 03:47:53;;;;;;;;;;;;;;;5.62;77.47;101180.19;5012669;28;19968;-78
2024/01/23 03:50:20;;;;;;;;;;;;;;;5.67;76.10;101161.19;5002313;28;19926;-78
2024/01/23 03:52:47;;;;;;;;;;;;;;;5.58;77.90;101169.72;5006893;28;19925;-79
2024/01/23 03:55:14;;;;;;;;;;;;;;;5.52;78.93;101173.97;5011072;28;19926;-78
2024/01/23 03:57:40;;;;;;;;;;;;;;;5.28;81.37;101198.69;4998655;28;19941;-79
2024/01/23 04:00:07;;;;;;;;;;;;;;;5.48;80.92;101204.28;4998687;28;20016;-78
2024/01/23 04:02:37;;;;;;;;;;;;;;;5.44;80.54;101191.19;5007337;28;19925;-79
2024/01/23 04:05:04;;;;;;;;;;;;;;;5.46;80.26;101195.56;5009090;28;19986;-78
2024/01/23 04:07:31;;;;;;;;;;;;;;;5.45;79.63;101192.94;5009813;28;19925;-79
2024/01/23 04:09:58;;;;;;;;;;;;;;;5.66;78.51;101185.50;5009646;28;19925;-79
2024/01/23 04:12:24;;;;;;;;;;;;;;;5.44;79.36;101173.81;4990446;28;19930;-79
2024/01/23 04:14:51;;;;;;;;;;;;;;;5.36;79.62;101191.03;4997108;28;19968;-78
2024/01/23 04:17:17;;;;;;;;;;;;;;;5.39;79.24;101214.53;5009997;28;19933;-79
2024/01/23 04:19:44;;;;;;;;;;;;;;;5.36;79.67;101217.06;4991723;28;19926;-78
2024/01/23 04:22:11;;;;;;;;;;;;;;;5.28;79.39;101226.47;5009626;28;20022;-78
2024/01/23 04:24:38;;;;;;;;;;;;;;;5.44;78.68;101220.69;5008641;28;19932;-79
2024/01/23 04:27:04;;;;;;;;;;;;;;;5.32;79.34;101226.53;4980703;28;19957;-78
2024/01/23 04:29:31;;;;;;;;;;;;;;;5.29;79.84;101223.88;4984766;28;19926;-76
2024/01/23 04:31:58;;;;;;;;;;;;;;;5.28;80.13;101237.72;5000214;28;19926;-78
2024/01/23 04:34:24;;;;;;;;;;;;;;;5.19;80.21;101248.84;5008520;28;19929;-78
2024/01/23 04:36:51;;;;;;;;;;;;;;;5.34;79.78;101242.19;5009986;28;19925;-78
2024/01/23 04:39:18;;;;;;;;;;;;;;;5.26;79.82;101246.34;4980660;28;19937;-78
2024/01/23 04:41:44;;;;;;;;;;;;;;;5.18;80.15;101247.06;5023896;28;19925;-78
2024/01/23 04:44:11;;;;;;;;;;;;;;;5.34;79.06;101240.44;4992397;28;19926;-77
2024/01/23 04:46:37;;;;;;;;;;;;;;;5.42;78.57;101245.81;4994037;28;19926;-78
2024/01/23 04:49:04;;;;;;;;;;;;;;;5.46;78.22;101234.63;5006625;28;19948;-79
2024/01/23 04:51:31;;;;;;;;;;;;;;;5.39;78.19;101235.34;4989982;28;19926;-78
2024/01/23 04:53:57;;;;;;;;;;;;;;;5.33;78.44;101248.22;4992245;28;19956;-78
2024/01/23 04:56:24;;;;;;;;;;;;;;;5.27;78.85;101254.22;5009335;28;20400;-78
2024/01/23 04:58:51;;;;;;;;;;;;;;;5.22;78.75;101263.66;5019154;28;20463;-79
2024/01/23 05:01:18;;;;;;;;;;;;;;;5.05;79.33;101281.50;5006840;28;19933;-79
2024/01/23 05:03:45;;;;;;;;;;;;;;;5.16;79.00;101295.63;5008156;28;19926;-79
2024/01/23 05:06:11;;;;;;;;;;;;;;;5.40;77.51;101296.97;5003585;28;20428;-79
2024/01/23 05:08:38;;;;;;;;;;;;;;;5.29;77.64;101299.34;4984754;28;19932;-78
2024/01/23 05:11:05;;;;;;;;;;;;;;;5.37;77.56;101300.41;4993608;28;19933;-79
2024/01/23 05:13:31;;;;;;;;;;;;;;;5.21;77.99;101313.94;5007229;28;19926;-79
2024/01/23 05:15:58;;;;;;;;;;;;;;;5.22;77.97;101319.16;4991437;28;19933;-80
2024/01/23 05:18:27;;;;;;;;;;;;;;;5.24;78.07;101324.41;4985338;28;20024;-81
2024/01/23 05:20:55;;;;;;;;;;;;;;;5.15;77.94;101338.09;4989744;28;19930;-79
2024/01/23 05:23:24;;;;;;;;;;;;;;;5.27;77.53;101334.00;4995380;28;19925;-78
2024/01/23 05:25:50;;;;;;;;;;;;;;;5.31;77.33;101331.50;5010034;28;19925;-79
2024/01/23 05:28:17;;;;;;;;;;;;;;;5.19;77.43;101345.13;5009793;28;19933;-80
2024/01/23 05:30:44;;;;;;;;;;;;;;;5.17;77.48;101349.44;5010446;28;19933;-79
2024/01/23 05:33:11;;;;;;;;;;;;;;;5.39;76.62;101352.50;4989066;28;19980;-79
2024/01/23 05:35:38;;;;;;;;;;;;;;;5.06;77.48;101366.53;4993039;28;19937;-80
2024/01/23 05:38:04;;;;;;;;;;;;;;;5.16;76.82;101371.09;4984967;28;19948;-80
2024/01/23 05:40:31;;;;;;;;;;;;;;;5.33;75.98;101366.25;4987622;28;19925;-80
2024/01/23 05:42:57;;;;;;;;;;;;;;;5.23;75.96;101380.78;4990852;28;19926;-80
2024/01/23 05:45:24;;;;;;;;;;;;;;;5.10;76.76;101383.97;5006667;28;19945;-79
2024/01/23 05:47:51;;;;;;;;;;;;;;;5.07;76.46;101394.31;5008577;28;19925;-81
2024/01/23 05:50:18;;;;;;;;;;;;;;;5.10;76.01;101390.88;4996161;28;19989;-80
2024/01/23 05:52:44;;;;;;;;;;;;;;;5.11;75.61;101393.50;4985291;28;19925;-78
2024/01/23 05:55:11;;;;;;;;;;;;;;;5.32;74.59;101387.03;4989602;28;19933;-78
2024/01/23 05:57:38;;;;;;;;;;;;;;;5.10;75.00;101393.47;5005754;28;19929;-80
2024/01/23 06:00:06;;;;;;;;;;;;;;;5.25;74.24;101399.03;4998148;28;19932;-82
2024/01/23 06:02:32;;;;;;;;;;;;;;;5.07;75.15;101404.72;4987736;28;19926;-80
2024/01/23 06:04:59;;;;;;;;;;;;;;;4.91;75.86;101413.00;4988679;28;19926;-79
2024/01/23 06:07:26;;;;;;;;;;;;;;;4.94;75.97;101413.06;4999126;28;19933;-80
2024/01/23 06:09:53;;;;;;;;;;;;;;;5.08;74.68;101416.88;5008912;28;19949;-81
2024/01/23 06:12:20;;;;;;;;;;;;;;;5.11;74.71;101416.94;5002827;28;19926;-80
2024/01/23 06:14:47;;;;;;;;;;;;;;;5.04;74.94;101420.25;4988094;28;19995;-79
2024/01/23 06:17:13;;;;;;;;;;;;;;;5.10;75.07;101435.09;4998363;28;19932;-77
2024/01/23 06:19:40;;;;;;;;;;;;;;;5.19;74.42;101433.59;5006699;28;19925;-78
2024/01/23 06:22:07;;;;;;;;;;;;;;;5.11;74.74;101439.47;5031378;28;19961;-79
2024/01/23 06:24:33;;;;;;;;;;;;;;;5.13;74.86;101448.22;5007421;28;19933;-80
2024/01/23 06:27:00;;;;;;;;;;;;;;;5.38;73.35;101460.06;5006207;28;19925;-79
2024/01/23 06:29:27;;;;;;;;;;;;;;;5.27;73.86;101469.34;4990572;28;19926;-79
2024/01/23 06:31:53;;;;;;;;;;;;;;;5.11;73.76;101453.34;5014211;28;19926;-79
2024/01/23 06:34:21;;;;;;;;;;;;;;;5.18;73.33;101464.81;5007391;28;19932;-79
2024/01/23 06:36:51;;;;;;;;;;;;;;;5.27;72.61;101464.13;4986545;28;19926;-80
2024/01/23 06:39:18;;;;;;;;;;;;;;;5.08;73.51;101478.44;5002137;28;19929;-81
2024/01/23 06:41:45;;;;;;;;;;;;;;;5.18;73.16;101496.03;5007924;28;19937;-81
2024/01/23 06:44:13;;;;;;;;;;;;;;;5.02;73.83;101493.03;4993459;28;19932;-80
2024/01/23 06:46:39;;;;;;;;;;;;;;;5.03;73.77;101507.81;5012216;28;19940;-81
2024/01/23 06:49:06;;;;;;;;;;;;;;;5.04;73.82;101519.13;5007572;28;19948;-80
2024/01/23 06:51:32;;;;;;;;;;;;;;;5.22;72.85;101514.34;5011602;28;19958;-78
2024/01/23 06:53:59;;;;;;;;;;;;;;;5.13;73.47;101519.34;5009153;28;19963;-80
2024/01/23 06:56:28;;;;;;;;;;;;;;;5.04;73.56;101530.41;5009245;28;19926;-80
2024/01/23 06:58:55;;;;;;;;;;;;;;;4.82;74.41;101542.00;5009334;28;20288;-80
2024/01/23 07:01:21;;;;;;;;;;;;;;;4.86;74.82;101543.81;5008696;28;19925;-79
2024/01/23 07:03:49;;;;;;;;;;;;;;;4.73;75.44;101543.47;5008141;28;19929;-80
2024/01/23 07:06:16;;;;;;;;;;;;;;;4.92;74.97;101560.44;5007177;28;19933;-81
2024/01/23 07:08:43;;;;;;;;;;;;;;;5.05;74.75;101562.50;5006194;28;19925;-79
2024/01/23 07:11:09;;;;;;;;;;;;;;;4.99;75.09;101567.56;5003654;28;19926;-80
2024/01/23 07:13:36;;;;;;;;;;;;;;;4.96;75.45;101583.09;5007151;28;19925;-80
2024/01/23 07:16:02;;;;;;;;;;;;;;;4.84;75.62;101588.84;5012628;28;19933;-80
2024/01/23 07:18:29;;;;;;;;;;;;;;;4.89;75.91;101592.44;5008100;28;19925;-80
2024/01/23 07:20:56;;;;;;;;;;;;;;;4.85;75.90;101599.28;5008122;28;19949;-81
2024/01/23 07:23:22;;;;;;;;;;;;;;;4.97;75.62;101595.25;5012214;28;19992;-80
2024/01/23 07:25:49;;;;;;;;;;;;;;;4.96;75.83;101611.72;4992380;28;19925;-79
2024/01/23 07:28:16;;;;;;;;;;;;;;;4.89;75.83;101623.66;4993972;28;19932;-80
2024/01/23 07:31:00;;;;;;;;;;;;;;;4.92;76.06;101634.13;4991451;23;19977;-80
2024/01/23 07:33:28;;;;;;;;;;;;;;;4.97;75.72;101649.91;4990958;28;19972;-81
2024/01/23 07:35:55;;;;;;;;;;;;;;;5.02;75.22;101645.69;4988636;28;19933;-79
2024/01/23 07:38:22;;;;;;;;;;;;;;;5.02;74.96;101650.88;4994258;28;19961;-79
2024/01/23 07:40:48;;;;;;;;;;;;;;;4.99;75.20;101661.22;4981890;28;19926;-81
2024/01/23 07:43:22;;;;;;;;;;;;;;;4.93;75.29;101663.66;4986712;28;20040;-80
2024/01/23 07:45:49;;;;;;;;;;;;;;;4.81;76.05;101662.47;4981656;28;19926;-80
2024/01/23 07:48:16;;;;;;;;;;;;;;;5.03;75.39;101678.69;4977041;28;19944;-80
2024/01/23 07:50:42;;;;;;;;;;;;;;;5.03;74.86;101670.88;4992453;28;19949;-79
2024/01/23 07:53:09;;;;;;;;;;;;;;;5.09;74.98;101673.63;4975798;28;19926;-79
2024/01/23 07:55:35;;;;;;;;;;;;;;;5.14;74.79;101682.47;4976677;28;19932;-79
2024/01/23 07:58:02;;;;;;;;;;;;;;;5.02;75.35;101672.56;4981930;28;19969;-80
2024/01/23 08:00:29;;;;;;;;;;;;;;;5.23;74.99;101674.88;4979318;28;20024;-80
2024/01/23 08:02:56;;;;;;;;;;;;;;;5.23;74.64;101680.09;4980898;28;19930;-82
2024/01/23 08:05:23;;;;;;;;;;;;;;;5.20;74.77;101686.94;4989347;28;19934;-80
2024/01/23 08:07:49;;;;;;;;;;;;;;;5.26;74.68;101681.00;4986454;28;19936;-81
2024/01/23 08:10:16;;;;;;;;;;;;;;;5.26;74.71;101687.09;4983081;28;19934;-80
2024/01/23 08:12:43;;;;;;;;;;;;;;;5.29;74.94;101686.31;4983546;28;19926;-80
2024/01/23 08:15:10;;;;;;;;;;;;;;;5.44;74.35;101685.81;4985358;28;20016;-79
2024/01/23 08:17:36;;;;;;;;;;;;;;;5.38;74.28;101676.13;4987274;28;19930;-80
2024/01/23 08:20:03;;;;;;;;;;;;;;;5.31;74.68;101690.69;4986033;28;20227;-80
2024/01/23 08:22:30;;;;;;;;;;;;;;;5.30;74.83;101682.84;4989001;28;19980;-80
2024/01/23 08:24:57;;;;;;;;;;;;;;;5.30;74.82;101675.94;4983894;28;19926;-80
2024/01/23 08:27:23;;;;;;;;;;;;;;;5.45;74.32;101687.59;4984818;28;19933;-80
2024/01/23 08:29:50;;;;;;;;;;;;;;;5.54;73.89;101693.91;4990116;28;20005;-79
2024/01/23 08:32:17;;;;;;;;;;;;;;;5.50;74.46;101689.44;4985796;28;19936;-80
2024/01/23 08:34:43;;;;;;;;;;;;;;;5.52;74.52;101694.72;4979001;28;19926;-80
2024/01/23 08:37:10;;;;;;;;;;;;;;;5.66;73.78;101687.25;4990958;28;19962;-80
2024/01/23 08:39:37;;;;;;;;;;;;;;;5.60;73.90;101687.97;4969093;28;19933;-80
2024/01/23 08:42:04;;;;;;;;;;;;;;;5.60;74.01;101697.53;4984443;28;19929;-80
2024/01/23 08:44:30;;;;;;;;;;;;;;;5.59;73.98;101696.66;4979750;28;19934;-80
2024/01/23 08:46:57;;;;;;;;;;;;;;;5.67;73.52;101694.22;5001297;28;19940;-81
2024/01/23 08:49:24;;;;;;;;;;;;;;;5.79;72.73;101704.94;4983970;28;19926;-80
2024/01/23 08:51:50;;;;;;;;;;;;;;;5.80;72.87;101706.72;4989452;28;19925;-80
2024/01/23 08:54:20;;;;;;;;;;;;;;;5.84;73.03;101718.97;4985379;28;19929;-80
2024/01/23 08:56:47;;;;;;;;;;;;;;;5.89;72.33;101714.78;4981451;28;19930;-81
2024/01/23 08:59:14;;;;;;;;;;;;;;;5.84;72.75;101729.38;4988908;28;19925;-80
2024/01/23 09:01:40;;;;;;;;;;;;;;;5.84;73.15;101721.56;4988216;28;19989;-81
2024/01/23 09:04:07;;;;;;;;;;;;;;;5.95;72.41;101733.97;4984499;28;20263;-80
2024/01/23 09:06:34;;;;;;;;;;;;;;;6.00;72.43;101732.41;4987630;28;20008;-80
2024/01/23 09:09:01;;;;;;;;;;;;;;;6.02;71.91;101744.63;4990501;28;19929;-80
2024/01/23 09:11:28;;;;;;;;;;;;;;;6.02;72.56;101738.53;4982747;28;19926;-80
2024/01/23 09:13:57;;;;;;;;;;;;;;;5.95;72.47;101742.66;4979424;28;20382;-80
2024/01/23 09:16:23;;;;;;;;;;;;;;;6.05;71.56;101749.03;4973500;28;19933;-81
2024/01/23 09:18:50;;;;;;;;;;;;;;;6.08;71.82;101746.50;4983179;28;19926;-79
2024/01/23 09:21:17;;;;;;;;;;;;;;;6.11;71.71;101759.59;4983903;28;19933;-80
2024/01/23 09:23:44;;;;;;;;;;;;;;;6.11;71.91;101763.94;4987092;28;19927;-80
2024/01/23 09:26:11;;;;;;;;;;;;;;;6.13;72.01;101768.34;4982986;28;20409;-80
2024/01/23 09:28:37;;;;;;;;;;;;;;;6.17;72.11;101779.72;4986191;28;20377;-80
2024/01/23 09:31:04;;;;;;;;;;;;;;;6.19;71.90;101778.06;4975693;28;19930;-80
2024/01/23 09:33:31;;;;;;;;;;;;;;;6.22;71.89;101783.34;4983363;28;19929;-80
2024/01/23 09:35:58;;;;;;;;;;;;;;;6.29;70.90;101792.19;4988266;28;20385;-81
2024/01/23 09:38:24;;;;;;;;;;;;;;;6.32;70.53;101785.31;4984230;28;20003;-80
2024/01/23 09:40:51;;;;;;;;;;;;;;;6.36;69.67;101781.06;4983696;28;19926;-81
2024/01/23 09:43:18;;;;;;;;;;;;;;;6.44;69.99;101790.84;4986484;28;19926;-81
2024/01/23 09:45:47;;;;;;;;;;;;;;;6.41;69.70;101782.03;4985760;28;19934;-81
2024/01/23 09:48:15;;;;;;;;;;;;;;;6.51;69.66;101781.41;5001205;28;19925;-80
2024/01/23 09:50:44;;;;;;;;;;;;;;;6.44;69.67;101805.59;4987218;28;19926;-81
2024/01/23 09:53:11;;;;;;;;;;;;;;;6.46;69.67;101776.94;4975324;28;19930;-81
2024/01/23 09:55:38;;;;;;;;;;;;;;;6.52;69.19;101780.56;4987279;28;19926;-80
2024/01/23 09:58:06;;;;;;;;;;;;;;;6.42;69.85;101776.00;4971957;28;19926;-80
2024/01/23 10:00:32;;;;;;;;;;;;;;;6.53;70.40;101782.34;4986052;28;19930;-80
2024/01/23 10:02:59;;;;;;;;;;;;;;;6.59;68.78;101790.28;4982178;28;19926;-81
2024/01/23 10:05:26;;;;;;;;;;;;;;;6.57;68.92;101765.03;4984635;28;19926;-80
2024/01/23 10:07:54;;;;;;;;;;;;;;;6.55;69.40;101771.94;4985194;28;19934;-80
2024/01/23 10:10:20;;;;;;;;;;;;;;;6.66;68.53;101785.22;4987847;28;19929;-79
2024/01/23 10:12:48;;;;;;;;;;;;;;;6.70;68.74;101785.31;4985166;28;19932;-81
2024/01/23 10:15:17;;;;;;;;;;;;;;;6.75;68.53;101781.09;4980953;28;19984;-81
2024/01/23 10:17:45;;;;;;;;;;;;;;;6.81;68.52;101789.88;4976499;28;19934;-80
2024/01/23 10:20:13;;;;;;;;;;;;;;;6.83;68.60;101789.06;4987461;28;19930;-80
2024/01/23 10:22:40;;;;;;;;;;;;;;;7.00;68.08;101788.56;4981493;28;19981;-80
2024/01/23 10:25:07;;;;;;;;;;;;;;;7.05;68.94;101797.38;4966948;28;21102;-80
2024/01/23 10:27:35;;;;;;;;;;;;;;;7.02;67.21;101784.25;4969395;28;20029;-80
2024/01/23 10:30:02;;;;;;;;;;;;;;;6.91;66.63;101787.53;4968754;28;20267;-81
2024/01/23 10:32:30;;;;;;;;;;;;;;;7.03;65.99;101781.69;4969959;28;19938;-80
2024/01/23 10:34:57;;;;;;;;;;;;;;;7.05;66.41;101774.75;4969196;28;19949;-81
2024/01/23 10:37:23;;;;;;;;;;;;;;;7.07;66.93;101767.84;4971347;28;19937;-80
2024/01/23 10:39:51;;;;;;;;;;;;;;;7.17;66.88;101757.56;4983701;28;19930;-79
2024/01/23 10:42:18;;;;;;;;;;;;;;;7.19;66.38;101768.94;4983011;28;19925;-80
2024/01/23 10:44:47;;;;;;;;;;;;;;;7.14;65.61;101769.72;4987927;28;19926;-80
2024/01/23 10:47:15;;;;;;;;;;;;;;;7.16;64.64;101769.75;4984958;28;19926;-80
2024/01/23 10:49:45;;;;;;;;;;;;;;;7.28;63.61;101759.53;4986719;28;20006;-80
2024/01/23 10:52:15;;;;;;;;;;;;;;;7.27;64.29;101773.47;4980303;28;19934;-80
2024/01/23 10:54:46;;;;;;;;;;;;;;;7.29;63.76;101757.84;4982451;28;19933;-80
2024/01/23 10:57:23;;;;;;;;;;;;;;;7.31;63.59;101761.34;4984204;28;20016;-80
2024/01/23 10:59:50;;;;;;;;;;;;;;;7.35;64.05;101757.06;4986655;28;20021;-80
2024/01/23 11:02:22;;;;;;;;;;;;;;;7.37;64.77;101757.97;4984215;28;20462;-80
2024/01/23 11:04:50;;;;;;;;;;;;;;;7.42;64.37;101753.72;4973802;28;19926;-80
2024/01/23 11:07:35;;;;;;;;;;;;;;;7.45;63.53;101770.31;4971222;28;19933;-81
2024/01/23 11:10:22;;;;;;;;;;;;;;;7.47;63.98;101771.25;4980877;28;19934;-81
2024/01/23 11:13:30;;;;;;;;;;;;;;;7.42;63.70;101765.03;4982491;28;20300;-81
2024/01/23 11:15:57;;;;;;;;;;;;;;;7.46;63.37;101771.22;4949234;28;19934;-80
2024/01/23 11:18:28;;;;;;;;;;;;;;;7.51;63.56;101785.22;4964128;28;19926;-81
2024/01/23 11:21:05;;;;;;;;;;;;;;;7.65;64.15;101786.38;4976822;28;19960;-82
2024/01/23 11:23:32;;;;;;;;;;;;;;;7.53;64.79;101788.78;4984623;28;20020;-80
2024/01/23 11:26:08;;;;;;;;;;;;;;;7.47;65.76;101809.53;4985904;28;19984;-80
2024/01/23 11:28:35;;;;;;;;;;;;;;;7.21;66.94;101815.13;4984736;28;19940;-80
2024/01/23 11:31:09;;;;;;;;;;;;;;;7.07;67.63;101813.97;4969456;28;19985;-80
2024/01/23 11:33:36;;;;;;;;;;;;;;;6.98;68.47;101825.09;4975129;28;19980;-81
2024/01/23 11:36:10;;;;;;;;;;;;;;;6.91;68.66;101818.84;4973775;28;19933;-79
2024/01/23 11:38:41;;;;;;;;;;;;;;;6.90;69.25;101810.97;4989287;28;19956;-79
2024/01/23 11:41:22;;;;;;;;;;;;;;;6.86;69.45;101819.59;4984852;28;19953;-80
2024/01/23 11:43:49;;;;;;;;;;;;;;;6.86;69.77;101825.66;4983354;28;20290;-80
2024/01/23 11:46:25;;;;;;;;;;;;;;;6.87;70.50;101831.78;4981778;28;19925;-80
2024/01/23 11:48:53;;;;;;;;;;;;;;;6.87;70.27;101822.22;4980535;28;19926;-79
2024/01/23 11:51:20;;;;;;;;;;;;;;;6.87;70.16;101817.00;4980775;28;19933;-80
2024/01/23 11:53:47;;;;;;;;;;;;;;;6.88;69.88;101810.03;4979271;28;19942;-80
2024/01/23 11:56:15;;;;;;;;;;;;;;;6.87;70.06;101805.69;4981266;28;20209;-80
2024/01/23 11:58:42;;;;;;;;;;;;;;;6.81;70.25;101809.06;4976050;28;19976;-80
2024/01/23 12:01:09;;;;;;;;;;;;;;;6.83;70.92;101806.47;4979475;28;19940;-81
2024/01/23 12:03:35;;;;;;;;;;;;;;;6.76;71.86;101798.50;4977679;28;19934;-83
2024/01/23 12:06:02;;;;;;;;;;;;;;;6.70;72.70;101802.69;4984357;28;19933;-80
2024/01/23 12:08:29;;;;;;;;;;;;;;;6.78;72.27;101819.41;4971389;28;19926;-80
2024/01/23 12:10:56;;;;;;;;;;;;;;;6.75;72.63;101819.34;4980861;28;19993;-81
2024/01/23 12:13:24;;;;;;;;;;;;;;;6.77;72.75;101805.47;4985434;28;19934;-82
2024/01/23 12:15:51;;;;;;;;;;;;;;;6.89;71.74;101804.84;4988603;28;19933;-82
2024/01/23 12:18:24;;;;;;;;;;;;;;;6.88;71.96;101799.59;4992285;28;20001;-81
2024/01/23 12:20:54;;;;;;;;;;;;;;;6.87;71.90;101801.34;4982403;28;19972;-82
2024/01/23 12:23:21;;;;;;;;;;;;;;;6.93;71.99;101796.25;4983027;28;19926;-82
2024/01/23 12:25:48;;;;;;;;;;;;;;;6.95;71.72;101794.56;4982388;28;19936;-82
2024/01/23 12:28:15;;;;;;;;;;;;;;;7.04;71.16;101799.13;4974666;28;20397;-81
2024/01/23 12:30:42;;;;;;;;;;;;;;;7.04;70.73;101793.00;4996253;28;19926;-82
2024/01/23 12:33:13;;;;;;;;;;;;;;;7.07;71.09;101806.13;4982878;28;19934;-81
2024/01/23 12:35:40;;;;;;;;;;;;;;;7.07;71.22;101798.31;4985260;28;19934;-81
2024/01/23 12:38:07;;;;;;;;;;;;;;;7.07;71.36;101788.72;4984209;28;20002;-81
2024/01/23 12:40:33;;;;;;;;;;;;;;;7.04;71.33;101777.31;4986993;28;19926;-81
2024/01/23 12:43:00;;;;;;;;;;;;;;;7.03;71.55;101781.69;4989331;28;19926;-81
2024/01/23 12:45:26;;;;;;;;;;;;;;;7.01;72.08;101782.47;4983621;28;19926;-82
2024/01/23 12:47:54;;;;;;;;;;;;;;;6.97;73.05;101779.81;4968854;28;19934;-81